createdAt,value
2022-08-25T00:00:20.518Z,100.00
2022-08-25T00:02:55.152Z,100.00
2022-08-25T00:05:27.815Z,100.00
2022-08-25T00:07:57.210Z,100.00
2022-08-25T00:10:25.077Z,100.00
2022-08-25T00:12:54.255Z,100.00
2022-08-25T00:15:22.810Z,100.00
2022-08-25T00:17:50.795Z,100.00
2022-08-25T00:20:18.791Z,100.00
2022-08-25T00:22:46.542Z,100.00
2022-08-25T00:25:14.345Z,100.00
2022-08-25T00:27:43.665Z,100.00
2022-08-25T00:30:16.731Z,100.00
2022-08-25T00:32:55.096Z,100.00
2022-08-25T00:35:26.393Z,100.00
2022-08-25T00:37:54.172Z,100.00
2022-08-25T00:40:23.485Z,100.00
2022-08-25T00:42:51.281Z,100.00
2022-08-25T00:45:20.404Z,100.00
2022-08-25T00:47:48.449Z,100.00
2022-08-25T00:50:17.288Z,100.00
2022-08-25T00:52:49.189Z,100.00
2022-08-25T00:55:21.314Z,100.00
2022-08-25T00:57:57.759Z,100.00
2022-08-25T01:00:31.060Z,100.00
2022-08-25T01:02:59.343Z,100.00
2022-08-25T01:05:28.694Z,100.00
2022-08-25T01:08:00.274Z,100.00
2022-08-25T01:10:28.780Z,100.00
2022-08-25T01:13:03.919Z,100.00
2022-08-25T01:15:34.393Z,100.00
2022-08-25T01:18:05.970Z,100.00
2022-08-25T01:20:34.652Z,100.00
2022-08-25T01:23:03.794Z,100.00
2022-08-25T01:25:40.653Z,100.00
2022-08-25T01:28:08.437Z,100.00
2022-08-25T01:30:37.582Z,100.00
2022-08-25T01:33:05.979Z,100.00
2022-08-25T01:35:34.256Z,100.00
2022-08-25T01:38:05.931Z,100.00
2022-08-25T01:40:35.651Z,100.00
2022-08-25T01:43:13.021Z,100.00
2022-08-25T01:45:44.150Z,100.00
2022-08-25T01:48:13.410Z,100.00
2022-08-25T01:50:42.040Z,100.00
2022-08-25T01:53:15.457Z,100.00
2022-08-25T01:55:52.935Z,100.00
2022-08-25T01:58:23.727Z,100.00
2022-08-25T02:00:55.774Z,100.00
2022-08-25T02:03:24.850Z,100.00
2022-08-25T02:05:53.340Z,100.00
2022-08-25T02:08:23.335Z,100.00
2022-08-25T02:10:51.421Z,100.00
2022-08-25T02:13:20.764Z,100.00
2022-08-25T02:15:56.410Z,100.00
2022-08-25T02:18:25.132Z,100.00
2022-08-25T02:20:54.238Z,100.00
2022-08-25T02:23:23.438Z,100.00
2022-08-25T02:25:51.402Z,100.00
2022-08-25T02:28:19.210Z,100.00
2022-08-25T02:30:48.078Z,100.00
2022-08-25T02:33:15.990Z,100.00
2022-08-25T02:35:43.687Z,100.00
2022-08-25T02:38:11.515Z,100.00
2022-08-25T02:40:40.745Z,100.00
2022-08-25T02:43:08.559Z,100.00
2022-08-25T02:45:36.750Z,100.00
2022-08-25T02:48:05.022Z,100.00
2022-08-25T02:50:33.302Z,100.00
2022-08-25T02:53:01.070Z,100.00
2022-08-25T02:55:28.890Z,100.00
2022-08-25T02:57:57.981Z,100.00
2022-08-25T03:00:26.360Z,100.00
2022-08-25T03:02:54.278Z,100.00
2022-08-25T03:05:22.362Z,100.00
2022-08-25T03:07:50.091Z,100.00
2022-08-25T03:10:20.798Z,100.00
2022-08-25T03:12:48.664Z,100.00
2022-08-25T03:15:18.424Z,100.00
2022-08-25T03:17:46.791Z,100.00
2022-08-25T03:20:15.349Z,100.00
2022-08-25T03:22:43.320Z,100.00
2022-08-25T03:25:29.147Z,100.00
2022-08-25T03:27:56.935Z,100.00
2022-08-25T03:30:26.696Z,100.00
2022-08-25T03:32:54.823Z,100.00
2022-08-25T03:35:22.750Z,100.00
2022-08-25T03:37:51.112Z,100.00
2022-08-25T03:40:18.947Z,100.00
2022-08-25T03:42:47.751Z,100.00
2022-08-25T03:45:17.747Z,100.00
2022-08-25T03:47:49.323Z,100.00
2022-08-25T03:50:18.937Z,100.00
2022-08-25T03:52:51.083Z,100.00
2022-08-25T03:55:19.123Z,100.00
2022-08-25T03:57:46.834Z,100.00
2022-08-25T04:00:15.050Z,100.00
2022-08-25T04:02:43.783Z,100.00
2022-08-25T04:05:13.556Z,100.00
2022-08-25T04:07:43.755Z,100.00
2022-08-25T04:10:12.429Z,100.00
2022-08-25T04:12:40.350Z,100.00
2022-08-25T04:15:10.586Z,100.00
2022-08-25T04:17:40.742Z,100.00
2022-08-25T04:20:11.413Z,100.00
2022-08-25T04:22:45.112Z,100.00
2022-08-25T04:25:13.439Z,100.00
2022-08-25T04:27:41.519Z,100.00
2022-08-25T04:30:10.784Z,100.00
2022-08-25T04:32:38.616Z,100.00
2022-08-25T04:35:07.501Z,100.00
2022-08-25T04:37:35.426Z,100.00
2022-08-25T04:40:05.719Z,100.00
2022-08-25T04:42:33.918Z,100.00
2022-08-25T04:45:03.900Z,100.00
2022-08-25T04:47:31.708Z,100.00
2022-08-25T04:49:59.451Z,100.00
2022-08-25T04:52:27.192Z,100.00
2022-08-25T04:54:55.435Z,100.00
2022-08-25T04:57:24.544Z,100.00
2022-08-25T04:59:52.454Z,100.00
2022-08-25T05:02:20.556Z,100.00
2022-08-25T05:04:48.361Z,100.00
2022-08-25T05:07:16.149Z,100.00
2022-08-25T05:09:43.975Z,100.00
2022-08-25T05:12:11.861Z,100.00
2022-08-25T05:14:41.760Z,100.00
2022-08-25T05:17:09.486Z,100.00
2022-08-25T05:19:37.253Z,100.00
2022-08-25T05:22:05.109Z,100.00
2022-08-25T05:24:32.885Z,100.00
2022-08-25T05:27:00.698Z,100.00
2022-08-25T05:29:28.484Z,100.00
2022-08-25T05:31:57.734Z,100.00
2022-08-25T05:34:25.779Z,100.00
2022-08-25T05:36:54.492Z,100.00
2022-08-25T05:39:22.280Z,100.00
2022-08-25T05:41:50.094Z,100.00
2022-08-25T05:44:21.168Z,100.00
2022-08-25T05:46:49.918Z,100.00
2022-08-25T05:49:19.557Z,100.00
2022-08-25T05:51:47.322Z,100.00
2022-08-25T05:54:15.117Z,100.00
2022-08-25T05:56:42.933Z,100.00
2022-08-25T05:59:10.729Z,100.00
2022-08-25T06:01:56.102Z,100.00
2022-08-25T06:04:25.523Z,100.00
2022-08-25T06:06:54.764Z,100.00
2022-08-25T06:09:23.059Z,100.00
2022-08-25T06:11:54.639Z,100.00
2022-08-25T06:14:23.863Z,100.00
2022-08-25T06:16:52.123Z,100.00
2022-08-25T06:19:21.140Z,100.00
2022-08-25T06:21:50.744Z,100.00
2022-08-25T06:24:18.450Z,100.00
2022-08-25T06:26:46.330Z,100.00
2022-08-25T06:29:14.930Z,100.00
2022-08-25T06:31:43.418Z,100.00
2022-08-25T06:34:12.306Z,100.00
2022-08-25T06:36:40.293Z,100.00
2022-08-25T06:39:10.599Z,100.00
2022-08-25T06:41:39.109Z,100.00
2022-08-25T06:44:07.199Z,100.00
2022-08-25T06:46:37.112Z,100.00
2022-08-25T06:49:06.043Z,100.00
2022-08-25T06:51:36.001Z,100.00
2022-08-25T06:54:05.113Z,100.00
2022-08-25T06:56:35.144Z,100.00
2022-08-25T06:59:03.710Z,100.00
2022-08-25T07:01:32.119Z,100.00
2022-08-25T07:04:04.869Z,100.00
2022-08-25T07:06:36.024Z,100.00
2022-08-25T07:09:06.205Z,100.00
2022-08-25T07:11:35.900Z,100.00
2022-08-25T07:14:06.807Z,100.00
2022-08-25T07:16:35.054Z,100.00
2022-08-25T07:19:03.203Z,100.00
2022-08-25T07:21:35.555Z,100.00
2022-08-25T07:24:06.891Z,100.00
2022-08-25T07:26:38.609Z,100.00
2022-08-25T07:29:10.424Z,100.00
2022-08-25T07:31:38.356Z,100.00
2022-08-25T07:34:24.277Z,100.00
2022-08-25T07:36:53.542Z,100.00
2022-08-25T07:39:21.991Z,100.00
2022-08-25T07:41:52.436Z,100.00
2022-08-25T07:44:22.582Z,100.00
2022-08-25T07:46:50.927Z,100.00
2022-08-25T07:49:23.204Z,100.00
2022-08-25T07:52:04.390Z,100.00
2022-08-25T07:54:34.528Z,100.00
2022-08-25T07:57:04.384Z,100.00
2022-08-25T07:59:39.231Z,100.00
2022-08-25T08:02:09.265Z,100.00
2022-08-25T08:04:46.238Z,100.00
2022-08-25T08:07:14.063Z,100.00
2022-08-25T08:09:41.777Z,100.00
2022-08-25T08:12:11.896Z,100.00
2022-08-25T08:14:44.993Z,100.00
2022-08-25T08:17:14.335Z,100.00
2022-08-25T08:19:45.291Z,100.00
2022-08-25T08:22:15.587Z,100.00
2022-08-25T08:24:54.787Z,100.00
2022-08-25T08:27:25.684Z,100.00
2022-08-25T08:29:53.659Z,100.00
2022-08-25T08:32:25.220Z,100.00
2022-08-25T08:35:03.372Z,100.00
2022-08-25T08:37:31.368Z,100.00
2022-08-25T08:40:01.485Z,100.00
2022-08-25T08:42:57.679Z,100.00
2022-08-25T08:45:40.560Z,100.00
2022-08-25T08:48:44.248Z,100.00
2022-08-25T08:51:22.924Z,100.00
2022-08-25T08:53:57.391Z,100.00
2022-08-25T08:56:30.850Z,100.00
2022-08-25T08:59:06.363Z,100.00
2022-08-25T09:01:36.669Z,100.00
2022-08-25T09:04:10.321Z,100.00
2022-08-25T09:06:42.544Z,100.00
2022-08-25T09:09:15.300Z,100.00
2022-08-25T09:11:59.207Z,100.00
2022-08-25T09:14:40.786Z,100.00
2022-08-25T09:17:21.551Z,100.00
2022-08-25T09:20:18.368Z,100.00
2022-08-25T09:23:00.147Z,97.61
2022-08-25T09:25:54.409Z,96.56
2022-08-25T09:28:29.699Z,95.83
2022-08-25T09:31:02.526Z,95.43
2022-08-25T09:33:35.413Z,95.75
2022-08-25T09:36:06.192Z,94.63
2022-08-25T09:38:34.760Z,92.97
2022-08-25T09:41:03.204Z,93.78
2022-08-25T09:43:33.689Z,93.67
2022-08-25T09:46:10.365Z,91.35
2022-08-25T09:48:46.590Z,87.32
2022-08-25T09:51:24.242Z,87.02
2022-08-25T09:53:56.619Z,83.21
2022-08-25T09:56:27.461Z,81.05
2022-08-25T09:59:03.040Z,81.95
2022-08-25T10:01:35.014Z,79.91
2022-08-25T10:04:05.670Z,75.57
2022-08-25T10:06:43.699Z,76.93
2022-08-25T10:09:29.354Z,80.44
2022-08-25T10:12:01.049Z,79.67
2022-08-25T10:14:36.227Z,74.20
2022-08-25T10:17:24.736Z,71.34
2022-08-25T10:20:13.104Z,69.83
2022-08-25T10:22:42.843Z,71.00
2022-08-25T10:25:13.308Z,67.72
2022-08-25T10:28:11.343Z,64.76
2022-08-25T10:30:51.542Z,66.59
2022-08-25T10:33:31.674Z,68.05
2022-08-25T10:36:06.506Z,60.08
2022-08-25T10:38:42.924Z,59.09
2022-08-25T10:41:27.371Z,59.72
2022-08-25T10:44:03.636Z,57.74
2022-08-25T10:46:42.042Z,54.41
2022-08-25T10:49:19.370Z,54.98
2022-08-25T10:51:56.771Z,49.62
2022-08-25T10:54:38.398Z,47.90
2022-08-25T10:57:16.811Z,50.43
2022-08-25T10:59:58.316Z,48.81
2022-08-25T11:02:50.410Z,47.55
2022-08-25T11:05:27.227Z,47.40
2022-08-25T11:08:02.295Z,47.40
2022-08-25T11:10:40.604Z,45.29
2022-08-25T11:13:15.550Z,46.03
2022-08-25T11:16:13.664Z,45.79
2022-08-25T11:18:47.610Z,44.39
2022-08-25T11:21:24.368Z,44.34
2022-08-25T11:24:00.149Z,42.88
2022-08-25T11:26:37.037Z,43.49
2022-08-25T11:29:11.593Z,41.80
2022-08-25T11:31:44.119Z,41.86
2022-08-25T11:34:15.885Z,42.56
2022-08-25T11:36:53.523Z,40.87
2022-08-25T11:39:40.349Z,41.18
2022-08-25T11:42:20.461Z,41.28
2022-08-25T11:45:02.390Z,41.33
2022-08-25T11:47:58.450Z,41.84
2022-08-25T11:50:31.215Z,40.47
2022-08-25T11:53:23.716Z,41.54
2022-08-25T11:56:02.291Z,41.22
2022-08-25T11:58:35.536Z,41.90
2022-08-25T12:01:06.936Z,40.93
2022-08-25T12:03:54.073Z,42.04
2022-08-25T12:06:29.411Z,42.13
2022-08-25T12:09:22.909Z,42.19
2022-08-25T12:11:58.841Z,41.34
2022-08-25T12:14:47.939Z,42.07
2022-08-25T12:17:25.654Z,43.06
2022-08-25T12:19:59.756Z,42.62
2022-08-25T12:22:58.411Z,42.06
2022-08-25T12:25:45.507Z,42.89
2022-08-25T12:28:41.906Z,44.05
2022-08-25T12:31:23.925Z,46.01
2022-08-25T12:34:09.259Z,44.57
2022-08-25T12:36:40.715Z,43.60
2022-08-25T12:39:17.822Z,43.03
2022-08-25T12:41:57.837Z,43.76
2022-08-25T12:44:40.096Z,43.98
2022-08-25T12:47:14.394Z,41.97
2022-08-25T12:49:42.624Z,42.81
2022-08-25T12:52:16.930Z,44.94
2022-08-25T12:54:49.675Z,46.03
2022-08-25T12:57:41.190Z,44.25
2022-08-25T13:00:18.482Z,44.00
2022-08-25T13:03:26.328Z,45.64
2022-08-25T13:06:09.317Z,46.90
2022-08-25T13:09:08.259Z,48.60
2022-08-25T13:11:43.187Z,49.18
2022-08-25T13:14:20.217Z,49.65
2022-08-25T13:16:55.591Z,52.09
2022-08-25T13:19:24.257Z,50.29
2022-08-25T13:21:54.613Z,48.08
2022-08-25T13:24:26.655Z,48.24
2022-08-25T13:26:57.098Z,44.69
2022-08-25T13:29:29.344Z,44.38
2022-08-25T13:32:09.302Z,43.45
2022-08-25T13:34:42.921Z,41.67
2022-08-25T13:37:33.184Z,41.64
2022-08-25T13:40:17.776Z,43.75
2022-08-25T13:42:54.435Z,40.27
2022-08-25T13:45:27.626Z,39.33
2022-08-25T13:47:56.847Z,39.82
2022-08-25T13:50:33.250Z,39.67
2022-08-25T13:53:04.779Z,39.69
2022-08-25T13:55:38.125Z,40.50
2022-08-25T13:58:24.326Z,39.36
2022-08-25T14:01:23.217Z,39.39
2022-08-25T14:04:01.135Z,40.85
2022-08-25T14:06:29.537Z,40.24
2022-08-25T14:09:16.024Z,39.23
2022-08-25T14:11:48.042Z,38.66
2022-08-25T14:14:32.327Z,39.86
2022-08-25T14:17:22.286Z,40.33
2022-08-25T14:19:56.252Z,41.10
2022-08-25T14:22:24.204Z,41.29
2022-08-25T14:24:54.275Z,40.26
2022-08-25T14:27:22.187Z,40.16
2022-08-25T14:29:52.847Z,40.20
2022-08-25T14:32:22.730Z,40.97
2022-08-25T14:34:50.486Z,42.74
2022-08-25T14:37:20.612Z,43.81
2022-08-25T14:39:54.582Z,42.41
2022-08-25T14:42:22.659Z,44.78
2022-08-25T14:44:53.209Z,42.45
2022-08-25T14:47:22.403Z,43.65
2022-08-25T14:49:51.968Z,45.45
2022-08-25T14:52:22.710Z,43.77
2022-08-25T14:54:50.687Z,43.97
2022-08-25T14:57:42.587Z,44.04
2022-08-25T15:00:12.122Z,44.60
2022-08-25T15:02:44.744Z,43.63
2022-08-25T15:05:17.169Z,44.32
2022-08-25T15:08:05.630Z,44.15
2022-08-25T15:10:35.203Z,45.56
2022-08-25T15:13:02.991Z,43.44
2022-08-25T15:15:32.883Z,43.49
2022-08-25T15:18:02.338Z,45.14
2022-08-25T15:20:30.338Z,47.12
2022-08-25T15:22:58.575Z,49.80
2022-08-25T15:25:26.615Z,46.81
2022-08-25T15:27:55.203Z,44.92
2022-08-25T15:30:22.939Z,45.84
2022-08-25T15:32:59.216Z,46.52
2022-08-25T15:35:29.078Z,47.69
2022-08-25T15:37:57.480Z,49.09
2022-08-25T15:40:25.601Z,51.68
2022-08-25T15:42:53.408Z,52.58
2022-08-25T15:45:23.639Z,51.69
2022-08-25T15:47:54.084Z,49.72
2022-08-25T15:50:26.039Z,49.71
2022-08-25T15:52:55.432Z,48.46
2022-08-25T15:55:23.187Z,48.40
2022-08-25T15:57:51.408Z,50.73
2022-08-25T16:00:21.521Z,49.92
2022-08-25T16:02:49.629Z,50.58
2022-08-25T16:05:17.457Z,49.41
2022-08-25T16:07:51.583Z,49.48
2022-08-25T16:10:21.299Z,52.80
2022-08-25T16:12:49.743Z,49.31
2022-08-25T16:15:17.515Z,50.69
2022-08-25T16:17:50.559Z,48.22
2022-08-25T16:20:20.752Z,48.81
2022-08-25T16:22:51.646Z,50.34
2022-08-25T16:25:21.985Z,51.28
2022-08-25T16:27:49.790Z,52.57
2022-08-25T16:30:17.895Z,54.76
2022-08-25T16:32:46.524Z,56.64
2022-08-25T16:35:14.942Z,60.25
2022-08-25T16:37:42.841Z,61.13
2022-08-25T16:40:13.595Z,62.35
2022-08-25T16:42:45.043Z,61.27
2022-08-25T16:45:12.885Z,61.46
2022-08-25T16:47:42.577Z,61.87
2022-08-25T16:50:11.579Z,64.86
2022-08-25T16:52:58.248Z,67.85
2022-08-25T16:55:39.183Z,67.02
2022-08-25T16:58:12.633Z,69.10
2022-08-25T17:00:41.669Z,69.54
2022-08-25T17:03:12.890Z,70.62
2022-08-25T17:05:43.296Z,70.27
2022-08-25T17:08:29.454Z,72.35
2022-08-25T17:11:06.429Z,73.03
2022-08-25T17:13:36.826Z,75.32
2022-08-25T17:16:05.277Z,72.89
2022-08-25T17:18:33.729Z,73.91
2022-08-25T17:21:03.903Z,75.70
2022-08-25T17:23:33.074Z,75.95
2022-08-25T17:26:02.384Z,71.59
2022-08-25T17:28:30.490Z,73.75
2022-08-25T17:30:59.844Z,73.58
2022-08-25T17:33:28.162Z,75.81
2022-08-25T17:35:57.926Z,75.83
2022-08-25T17:38:28.439Z,76.30
2022-08-25T17:40:58.259Z,75.92
2022-08-25T17:43:27.684Z,77.09
2022-08-25T17:45:57.481Z,77.71
2022-08-25T17:48:26.949Z,78.93
2022-08-25T17:50:55.587Z,78.06
2022-08-25T17:53:23.387Z,78.83
2022-08-25T17:56:00.253Z,80.83
2022-08-25T17:58:29.724Z,80.34
2022-08-25T18:00:58.290Z,82.18
2022-08-25T18:03:28.319Z,82.22
2022-08-25T18:05:56.521Z,82.88
2022-08-25T18:08:29.237Z,82.41
2022-08-25T18:11:03.287Z,81.96
2022-08-25T18:13:31.496Z,82.39
2022-08-25T18:15:59.360Z,81.96
2022-08-25T18:18:28.763Z,84.80
2022-08-25T18:20:56.754Z,86.46
2022-08-25T18:23:24.911Z,88.45
2022-08-25T18:25:53.179Z,88.11
2022-08-25T18:28:29.035Z,88.54
2022-08-25T18:30:57.157Z,88.68
2022-08-25T18:33:25.627Z,87.83
2022-08-25T18:35:59.781Z,90.73
2022-08-25T18:38:44.819Z,91.67
2022-08-25T18:41:13.359Z,94.30
2022-08-25T18:43:41.185Z,95.84
2022-08-25T18:46:09.094Z,97.95
2022-08-25T18:48:38.188Z,100.00
2022-08-25T18:51:07.462Z,100.00
2022-08-25T18:53:50.099Z,100.00
2022-08-25T18:56:19.170Z,100.00
2022-08-25T18:58:47.573Z,100.00
2022-08-25T19:01:15.663Z,100.00
2022-08-25T19:03:44.036Z,100.00
2022-08-25T19:06:13.415Z,100.00
2022-08-25T19:08:43.176Z,100.00
2022-08-25T19:11:11.151Z,100.00
2022-08-25T19:13:40.817Z,100.00
2022-08-25T19:16:13.918Z,100.00
2022-08-25T19:18:47.413Z,100.00
2022-08-25T19:21:20.508Z,100.00
2022-08-25T19:23:50.942Z,100.00
2022-08-25T19:26:20.858Z,100.00
2022-08-25T19:28:49.686Z,100.00
2022-08-25T19:31:18.262Z,100.00
2022-08-25T19:33:46.916Z,100.00
2022-08-25T19:36:17.849Z,100.00
2022-08-25T19:38:49.303Z,100.00
2022-08-25T19:41:19.850Z,100.00
2022-08-25T19:43:56.262Z,100.00
2022-08-25T19:46:25.780Z,100.00
2022-08-25T19:49:07.162Z,100.00
2022-08-25T19:51:38.053Z,100.00
2022-08-25T19:54:09.250Z,100.00
2022-08-25T19:56:53.695Z,100.00
2022-08-25T19:59:22.738Z,100.00
2022-08-25T20:01:53.390Z,100.00
2022-08-25T20:04:24.156Z,100.00
2022-08-25T20:06:55.324Z,100.00
2022-08-25T20:09:38.859Z,100.00
2022-08-25T20:12:10.253Z,100.00
2022-08-25T20:14:38.661Z,100.00
2022-08-25T20:17:14.457Z,100.00
2022-08-25T20:19:52.415Z,100.00
2022-08-25T20:22:25.840Z,100.00
2022-08-25T20:24:55.910Z,100.00
2022-08-25T20:27:29.184Z,100.00
2022-08-25T20:29:57.041Z,100.00
2022-08-25T20:32:25.056Z,100.00
2022-08-25T20:34:55.822Z,100.00
2022-08-25T20:37:25.750Z,100.00
2022-08-25T20:39:54.871Z,100.00
2022-08-25T20:42:22.908Z,100.00
2022-08-25T20:44:50.691Z,100.00
2022-08-25T20:47:20.601Z,100.00
2022-08-25T20:49:50.324Z,100.00
2022-08-25T20:52:19.624Z,100.00
2022-08-25T20:54:49.577Z,100.00
2022-08-25T20:57:19.213Z,100.00
2022-08-25T20:59:54.581Z,100.00
2022-08-25T21:02:22.901Z,100.00
2022-08-25T21:04:52.460Z,100.00
2022-08-25T21:07:21.225Z,100.00
2022-08-25T21:09:53.451Z,100.00
2022-08-25T21:12:22.124Z,100.00
2022-08-25T21:14:50.672Z,100.00
2022-08-25T21:17:19.258Z,100.00
2022-08-25T21:22:16.860Z,100.00
2022-08-25T21:24:45.372Z,100.00
2022-08-25T21:27:14.709Z,100.00
2022-08-25T21:29:44.531Z,100.00
2022-08-25T21:32:22.176Z,100.00
2022-08-25T21:34:52.892Z,100.00
2022-08-25T21:37:21.472Z,100.00
2022-08-25T21:39:49.410Z,100.00
2022-08-25T21:42:18.891Z,100.00
2022-08-25T21:44:46.713Z,100.00
2022-08-25T21:47:14.572Z,100.00
2022-08-25T21:49:42.589Z,100.00
2022-08-25T21:52:10.843Z,100.00
2022-08-25T21:54:39.018Z,100.00
2022-08-25T21:57:07.769Z,100.00
2022-08-25T21:59:40.242Z,100.00
2022-08-25T22:02:11.165Z,100.00
2022-08-25T22:04:40.102Z,100.00
2022-08-25T22:07:08.624Z,100.00
2022-08-25T22:09:36.983Z,100.00
2022-08-25T22:12:05.819Z,100.00
2022-08-25T22:14:33.854Z,100.00
2022-08-25T22:17:03.888Z,100.00
2022-08-25T22:19:31.760Z,100.00
2022-08-25T22:22:01.538Z,100.00
2022-08-25T22:24:29.325Z,100.00
2022-08-25T22:26:57.264Z,100.00
2022-08-25T22:29:26.691Z,100.00
2022-08-25T22:31:59.332Z,100.00
2022-08-25T22:34:33.133Z,100.00
2022-08-25T22:37:01.368Z,100.00
2022-08-25T22:39:29.772Z,100.00
2022-08-25T22:41:57.657Z,100.00
2022-08-25T22:44:27.148Z,100.00
2022-08-25T22:46:55.000Z,100.00
2022-08-25T22:49:22.896Z,100.00
2022-08-25T22:51:55.157Z,100.00
2022-08-25T22:54:25.451Z,100.00
2022-08-25T22:56:53.985Z,100.00
2022-08-25T22:59:22.172Z,100.00
2022-08-25T23:01:52.352Z,100.00
2022-08-25T23:04:20.640Z,100.00
2022-08-25T23:06:48.822Z,100.00
2022-08-25T23:09:18.711Z,100.00
2022-08-25T23:11:46.548Z,100.00
2022-08-25T23:14:14.440Z,100.00
2022-08-25T23:16:44.148Z,100.00
2022-08-25T23:19:13.996Z,100.00
2022-08-25T23:22:02.169Z,100.00
2022-08-25T23:24:32.191Z,100.00
2022-08-25T23:27:01.924Z,100.00
2022-08-25T23:29:30.806Z,100.00
2022-08-25T23:31:59.654Z,100.00
2022-08-25T23:34:28.701Z,100.00
2022-08-25T23:36:56.924Z,100.00
2022-08-25T23:39:25.422Z,100.00
2022-08-25T23:41:54.792Z,100.00
2022-08-25T23:44:24.538Z,100.00
2022-08-25T23:46:53.990Z,100.00
2022-08-25T23:49:23.968Z,100.00
2022-08-25T23:51:53.339Z,100.00
2022-08-25T23:54:21.732Z,100.00
2022-08-25T23:57:00.378Z,100.00
2022-08-25T23:59:29.656Z,100.00
